Terminal Aerodrome Forecast
Issued by NWS Anchorage, AK

Home | Current Version | Previous Version | Text Only | Print | Product List | Glossary On
Versions: 1 2 3 4 5 6 7 8 9 10 11 12 13 14 15 16 17 18 19 20 21 22 23 24 25 26 27
559
FTAK31 PANC 111131
TAFANC
TAF
PANC 111131Z 1112/1218 36007KT P6SM VCSH BKN060 BKN100
     FM111800 03005KT P6SM SCT060 BKN100 WS020/12035KT
     FM120300 15010KT P6SM SCT060 BKN100 WS020/12045KT
     FM120900 03005KT P6SM SCT050 BKN090=

USA.gov is the U.S. government's official web portal to all federal, state and local government web resources and services.